Time;durP1;ratioP1;P1;durP2;ratioP2;P2;SDS_P1;SDS_P2;PMS_P1;PMS_P2;Temp;Humidity;BMP_temperature;BMP_pressure;BME280_temperature;BME280_humidity;BME280_pressure;Samples;Min_cycle;Max_cycle;Signal;HPM_P1;HPM_P2
2023/10/10 00:04:38;;;;;;;6.70;3.40;;;;;;;;;;10293332;28;20040;-63
2023/10/10 00:09:36;;;;;;;8.95;3.33;;;;;;;;;;10293159;28;20078;-63
2023/10/10 00:14:36;;;;;;;11.15;2.95;;;;;;;;;;10292643;28;20075;-64
2023/10/10 00:19:42;;;;;;;8.27;3.22;;;;;;;;;;10292056;28;20068;-63
2023/10/10 00:24:40;;;;;;;12.90;3.90;;;;;;;;;;10291095;28;20075;-63
2023/10/10 00:29:43;;;;;;;5.15;3.45;;;;;;;;;;10292290;28;20075;-63
2023/10/10 00:34:43;;;;;;;10.00;5.55;;;;;;;;;;10291042;28;20079;-63
2023/10/10 00:39:47;;;;;;;12.35;5.75;;;;;;;;;;10291409;28;20060;-63
2023/10/10 00:44:47;;;;;;;16.92;5.65;;;;;;;;;;10291093;28;20075;-62
2023/10/10 00:49:46;;;;;;;9.80;4.45;;;;;;;;;;10290722;28;20495;-63
2023/10/10 00:54:45;;;;;;;15.93;5.53;;;;;;;;;;10289450;28;20099;-63
2023/10/10 00:59:44;;;;;;;12.65;5.45;;;;;;;;;;10290785;28;20063;-64
2023/10/10 01:04:55;;;;;;;13.13;6.50;;;;;;;;;;10292169;28;20072;-63
2023/10/10 01:09:56;;;;;;;9.18;6.20;;;;;;;;;;10289483;28;20067;-63
2023/10/10 01:14:57;;;;;;;16.17;4.90;;;;;;;;;;10288236;28;20076;-63
2023/10/10 01:19:59;;;;;;;10.55;5.53;;;;;;;;;;10288628;28;20088;-63
2023/10/10 01:24:58;;;;;;;10.20;4.30;;;;;;;;;;10302434;28;20099;-64
2023/10/10 01:30:17;;;;;;;8.25;3.90;;;;;;;;;;10288597;28;20075;-63
2023/10/10 01:35:16;;;;;;;7.70;3.88;;;;;;;;;;10286627;28;20065;-64
2023/10/10 01:40:16;;;;;;;10.05;4.03;;;;;;;;;;10289493;28;20057;-63
2023/10/10 01:45:18;;;;;;;11.70;3.90;;;;;;;;;;10289237;28;20068;-64
2023/10/10 01:50:17;;;;;;;10.95;3.97;;;;;;;;;;10289522;28;20068;-63
2023/10/10 01:55:18;;;;;;;13.68;3.97;;;;;;;;;;10289359;28;20060;-64
2023/10/10 02:00:22;;;;;;;16.83;3.60;;;;;;;;;;10290330;28;20125;-64
2023/10/10 02:05:36;;;;;;;6.30;3.38;;;;;;;;;;10288946;28;20044;-64
2023/10/10 02:10:36;;;;;;;8.52;3.30;;;;;;;;;;10280495;28;20068;-64
2023/10/10 02:15:39;;;;;;;7.22;3.22;;;;;;;;;;10288132;28;20494;-64
2023/10/10 02:20:50;;;;;;;5.55;3.25;;;;;;;;;;10286570;28;20076;-64
2023/10/10 02:25:53;;;;;;;3.72;2.42;;;;;;;;;;10289047;28;20505;-64
2023/10/10 02:30:52;;;;;;;10.30;3.20;;;;;;;;;;10289961;28;20084;-64
2023/10/10 02:35:58;;;;;;;7.03;3.13;;;;;;;;;;10290595;28;20131;-63
2023/10/10 02:41:14;;;;;;;4.80;2.30;;;;;;;;;;10296055;28;20072;-63
2023/10/10 02:46:17;;;;;;;5.90;2.88;;;;;;;;;;10310667;28;20060;-63
2023/10/10 02:51:16;;;;;;;8.75;3.00;;;;;;;;;;10291287;28;20470;-63
2023/10/10 02:56:19;;;;;;;7.35;2.65;;;;;;;;;;10295976;28;20073;-63
2023/10/10 03:01:50;;;;;;;11.13;2.90;;;;;;;;;;10294659;28;20494;-64
2023/10/10 03:06:44;;;;;;;8.98;3.15;;;;;;;;;;10293622;28;20083;-63
2023/10/10 03:12:03;;;;;;;6.25;2.85;;;;;;;;;;10294457;28;20076;-63
2023/10/10 03:17:05;;;;;;;7.97;3.22;;;;;;;;;;10302627;28;20107;-64
2023/10/10 03:22:29;;;;;;;9.57;2.60;;;;;;;;;;10301133;28;20083;-64
2023/10/10 03:27:53;;;;;;;11.13;3.08;;;;;;;;;;10295476;28;20079;-64
2023/10/10 03:33:08;;;;;;;5.47;2.45;;;;;;;;;;10298277;28;20072;-64
2023/10/10 03:38:27;;;;;;;6.30;2.55;;;;;;;;;;10286597;28;20088;-65
2023/10/10 05:23:47;;;;;;;12.40;8.45;;;;;;;;;;10272242;28;20457;-62
2023/10/10 05:28:46;;;;;;;12.88;8.77;;;;;;;;;;10291066;28;20076;-63
2023/10/10 05:33:45;;;;;;;13.98;8.52;;;;;;;;;;10287836;28;20091;-64
2023/10/10 05:38:45;;;;;;;18.35;9.15;;;;;;;;;;10286273;28;20076;-63
2023/10/10 05:43:43;;;;;;;13.90;8.05;;;;;;;;;;10289323;28;20072;-64
2023/10/10 05:48:42;;;;;;;20.65;9.20;;;;;;;;;;10277152;28;20064;-63
2023/10/10 05:53:40;;;;;;;13.68;8.25;;;;;;;;;;10283767;28;20075;-64
2023/10/10 05:58:42;;;;;;;13.60;7.60;;;;;;;;;;10279426;28;20490;-64
2023/10/10 06:03:41;;;;;;;11.75;8.55;;;;;;;;;;10285846;28;20072;-64
2023/10/10 06:08:41;;;;;;;29.92;9.60;;;;;;;;;;10278487;28;21057;-64
2023/10/10 06:13:43;;;;;;;16.45;8.27;;;;;;;;;;10290209;28;20091;-64
2023/10/10 06:18:44;;;;;;;14.68;8.07;;;;;;;;;;10289468;28;20506;-64
2023/10/10 06:23:44;;;;;;;14.07;8.82;;;;;;;;;;10286219;28;20096;-64
2023/10/10 06:28:47;;;;;;;22.98;10.88;;;;;;;;;;10293526;28;20057;-64
2023/10/10 06:33:49;;;;;;;22.95;8.77;;;;;;;;;;10295522;28;20722;-63
2023/10/10 06:38:59;;;;;;;19.17;7.82;;;;;;;;;;10282006;28;20072;-64
2023/10/10 06:43:59;;;;;;;15.80;8.43;;;;;;;;;;10290765;28;20510;-64
2023/10/10 06:49:04;;;;;;;18.17;9.68;;;;;;;;;;10289274;28;20079;-65
2023/10/10 06:54:03;;;;;;;15.07;9.85;;;;;;;;;;10280565;28;20075;-63
2023/10/10 06:59:03;;;;;;;19.33;8.68;;;;;;;;;;10292739;28;20084;-63
2023/10/10 07:04:04;;;;;;;20.02;8.55;;;;;;;;;;10293935;28;20079;-64
2023/10/10 07:09:14;;;;;;;20.35;9.05;;;;;;;;;;10291998;28;20072;-64
2023/10/10 07:14:16;;;;;;;21.30;10.30;;;;;;;;;;10287683;28;20068;-64
2023/10/10 07:19:23;;;;;;;17.77;8.90;;;;;;;;;;10287823;28;20071;-64
2023/10/10 07:24:28;;;;;;;21.85;8.27;;;;;;;;;;10292344;28;20080;-64
2023/10/10 07:29:30;;;;;;;14.82;7.72;;;;;;;;;;10294635;28;20075;-64
2023/10/10 07:34:35;;;;;;;10.98;8.13;;;;;;;;;;10294129;28;20099;-64
2023/10/10 07:39:33;;;;;;;17.00;7.97;;;;;;;;;;10293928;28;20037;-64
2023/10/10 07:44:34;;;;;;;14.93;8.63;;;;;;;;;;10294060;28;20103;-64
2023/10/10 07:49:32;;;;;;;10.88;7.38;;;;;;;;;;10292696;28;20072;-64
2023/10/10 07:54:40;;;;;;;12.45;7.93;;;;;;;;;;10298786;28;20488;-64
2023/10/10 07:59:39;;;;;;;9.27;6.82;;;;;;;;;;10292995;28;20475;-64
2023/10/10 08:04:38;;;;;;;14.05;8.65;;;;;;;;;;10295087;28;20072;-65
2023/10/10 08:09:37;;;;;;;32.50;7.40;;;;;;;;;;10293401;28;20077;-65
2023/10/10 08:14:39;;;;;;;18.17;6.45;;;;;;;;;;10289733;28;20083;-64
2023/10/10 08:19:40;;;;;;;21.83;6.35;;;;;;;;;;10290597;28;20088;-65
2023/10/10 08:24:43;;;;;;;18.95;6.20;;;;;;;;;;10291693;28;20084;-64
2023/10/10 08:29:42;;;;;;;9.52;5.43;;;;;;;;;;10290183;28;20076;-65
2023/10/10 08:34:42;;;;;;;16.75;5.78;;;;;;;;;;10297101;28;20499;-64
2023/10/10 08:39:41;;;;;;;13.25;4.43;;;;;;;;;;10291790;28;20068;-64
2023/10/10 08:44:47;;;;;;;7.95;4.15;;;;;;;;;;10290171;28;20076;-64
2023/10/10 08:49:52;;;;;;;11.05;4.57;;;;;;;;;;10305117;28;20069;-66
2023/10/10 08:54:51;;;;;;;7.05;3.30;;;;;;;;;;10290829;28;20068;-64
2023/10/10 08:59:52;;;;;;;8.13;3.45;;;;;;;;;;10291176;28;20064;-65
2023/10/10 09:04:52;;;;;;;7.70;3.80;;;;;;;;;;10291753;28;20081;-65
2023/10/10 09:10:04;;;;;;;9.00;4.00;;;;;;;;;;10290477;28;20071;-66
2023/10/10 09:15:16;;;;;;;12.40;5.55;;;;;;;;;;10288643;28;20110;-65
2023/10/10 09:20:28;;;;;;;7.15;4.18;;;;;;;;;;10289837;28;20068;-65
2023/10/10 09:25:31;;;;;;;21.85;6.70;;;;;;;;;;10290804;28;20077;-65
2023/10/10 09:30:34;;;;;;;15.13;6.72;;;;;;;;;;10289228;28;20111;-65
2023/10/10 09:35:39;;;;;;;20.38;4.78;;;;;;;;;;10290539;28;20083;-66
2023/10/10 09:40:40;;;;;;;15.73;4.80;;;;;;;;;;10288926;28;20067;-66
2023/10/10 09:45:55;;;;;;;14.10;5.43;;;;;;;;;;10291373;28;20524;-66
2023/10/10 09:51:08;;;;;;;19.85;4.85;;;;;;;;;;10299042;28;20076;-66
2023/10/10 09:56:08;;;;;;;11.95;4.32;;;;;;;;;;10297193;28;20090;-66
2023/10/10 10:01:14;;;;;;;10.30;4.78;;;;;;;;;;10298837;28;20073;-66
2023/10/10 10:06:36;;;;;;;9.88;4.38;;;;;;;;;;10297220;28;20061;-65
2023/10/10 10:11:49;;;;;;;9.13;4.20;;;;;;;;;;10295980;28;20064;-66
2023/10/10 10:16:48;;;;;;;31.17;14.05;;;;;;;;;;10294852;28;20084;-64
2023/10/10 10:21:53;;;;;;;11.85;4.97;;;;;;;;;;10297993;28;20070;-65
2023/10/10 10:27:07;;;;;;;9.07;3.20;;;;;;;;;;10295838;28;20076;-64
2023/10/10 10:32:13;;;;;;;8.05;3.25;;;;;;;;;;10296936;28;20076;-65
2023/10/10 10:37:23;;;;;;;7.97;3.05;;;;;;;;;;10296123;28;20082;-65
2023/10/10 10:42:22;;;;;;;14.55;3.13;;;;;;;;;;10293335;28;20068;-65
2023/10/10 10:47:45;;;;;;;12.30;3.25;;;;;;;;;;10294051;28;20103;-66
2023/10/10 10:52:55;;;;;;;10.98;2.70;;;;;;;;;;10296198;28;20080;-66
2023/10/10 10:58:05;;;;;;;10.85;3.20;;;;;;;;;;10295012;28;20476;-65
2023/10/10 11:03:09;;;;;;;15.13;5.75;;;;;;;;;;10294786;28;20077;-66
2023/10/10 11:08:13;;;;;;;10.70;4.72;;;;;;;;;;10297036;28;20084;-66
2023/10/10 11:13:21;;;;;;;6.65;3.67;;;;;;;;;;10294878;28;20068;-67
2023/10/10 11:18:34;;;;;;;7.43;3.75;;;;;;;;;;10294199;28;20076;-66
2023/10/10 11:23:41;;;;;;;7.47;3.03;;;;;;;;;;10294613;28;20040;-66
2023/10/10 11:28:47;;;;;;;7.07;3.22;;;;;;;;;;10291217;28;20068;-66
2023/10/10 11:33:55;;;;;;;14.57;4.50;;;;;;;;;;10293663;28;20072;-65
2023/10/10 11:38:56;;;;;;;8.55;4.03;;;;;;;;;;10295827;28;20061;-66
2023/10/10 11:43:59;;;;;;;8.43;3.25;;;;;;;;;;10291367;28;20073;-66
2023/10/10 11:48:59;;;;;;;8.55;3.33;;;;;;;;;;10294175;28;20068;-66
2023/10/10 11:53:59;;;;;;;6.85;3.20;;;;;;;;;;10294704;28;20072;-66
2023/10/10 11:58:57;;;;;;;6.40;2.80;;;;;;;;;;10292451;28;20072;-66
2023/10/10 12:04:05;;;;;;;8.25;3.22;;;;;;;;;;10292377;28;20084;-66
2023/10/10 12:09:05;;;;;;;7.82;2.67;;;;;;;;;;10289044;28;20095;-66
2023/10/10 12:14:03;;;;;;;6.88;3.08;;;;;;;;;;10289574;28;20080;-66
2023/10/10 12:19:01;;;;;;;7.70;3.35;;;;;;;;;;10293198;28;20064;-65
2023/10/10 12:24:00;;;;;;;5.97;2.88;;;;;;;;;;10292439;28;20076;-65
2023/10/10 12:29:02;;;;;;;9.93;4.40;;;;;;;;;;10292817;28;20072;-65
2023/10/10 12:34:02;;;;;;;8.30;3.60;;;;;;;;;;10292124;28;20122;-66
2023/10/10 12:39:04;;;;;;;22.88;14.15;;;;;;;;;;10292110;28;20077;-66
2023/10/10 12:44:06;;;;;;;14.10;3.30;;;;;;;;;;10289570;28;20506;-65
2023/10/10 12:49:04;;;;;;;9.75;3.20;;;;;;;;;;10291410;28;20515;-65
2023/10/10 12:54:05;;;;;;;13.07;3.33;;;;;;;;;;10289533;28;20068;-66
2023/10/10 12:59:07;;;;;;;9.93;3.30;;;;;;;;;;10290267;28;20076;-67
2023/10/10 13:04:28;;;;;;;8.88;3.03;;;;;;;;;;10289869;28;20060;-66
2023/10/10 13:09:28;;;;;;;8.82;3.20;;;;;;;;;;10289577;28;20513;-66
2023/10/10 13:14:32;;;;;;;14.57;3.45;;;;;;;;;;10287751;28;20087;-65
2023/10/10 13:19:32;;;;;;;9.43;3.15;;;;;;;;;;10288038;28;20080;-65
2023/10/10 13:24:30;;;;;;;6.68;3.38;;;;;;;;;;10288190;28;20144;-65
2023/10/10 13:29:30;;;;;;;4.53;3.25;;;;;;;;;;10290435;28;20072;-65
2023/10/10 13:34:28;;;;;;;5.43;2.60;;;;;;;;;;10292053;28;20064;-65
2023/10/10 13:39:43;;;;;;;13.02;3.42;;;;;;;;;;10289774;28;20182;-65
2023/10/10 13:44:44;;;;;;;12.27;3.10;;;;;;;;;;10289246;28;20068;-65
2023/10/10 13:49:45;;;;;;;13.15;3.67;;;;;;;;;;10287818;28;20091;-64
2023/10/10 13:54:43;;;;;;;7.63;3.72;;;;;;;;;;10289607;28;20065;-65
2023/10/10 13:59:47;;;;;;;10.70;3.70;;;;;;;;;;10288045;28;20073;-65
2023/10/10 14:04:50;;;;;;;7.93;3.33;;;;;;;;;;10288019;28;20041;-65
2023/10/10 14:09:50;;;;;;;14.90;3.20;;;;;;;;;;10288388;28;20068;-65
2023/10/10 14:15:08;;;;;;;14.65;3.90;;;;;;;;;;10289192;28;20093;-66
2023/10/10 14:20:19;;;;;;;7.10;3.40;;;;;;;;;;10287842;28;20071;-65
2023/10/10 14:25:18;;;;;;;9.30;2.58;;;;;;;;;;10278731;28;20076;-64
2023/10/10 14:30:23;;;;;;;9.90;3.15;;;;;;;;;;10277451;28;20088;-63
2023/10/10 14:35:23;;;;;;;9.75;3.30;;;;;;;;;;10276133;28;20080;-65
2023/10/10 14:40:23;;;;;;;5.75;3.03;;;;;;;;;;10295013;28;20079;-64
2023/10/10 14:45:28;;;;;;;5.18;2.88;;;;;;;;;;10290073;28;20080;-64
2023/10/10 14:50:28;;;;;;;8.32;2.80;;;;;;;;;;10291603;28;20080;-65
2023/10/10 14:55:30;;;;;;;5.10;2.72;;;;;;;;;;10294449;28;20084;-64
2023/10/10 15:00:30;;;;;;;17.27;3.97;;;;;;;;;;10292263;28;20084;-64
2023/10/10 15:05:28;;;;;;;16.67;3.67;;;;;;;;;;10281985;28;20091;-64
2023/10/10 15:10:27;;;;;;;8.65;3.38;;;;;;;;;;10293018;28;20079;-64
2023/10/10 15:15:26;;;;;;;12.23;4.47;;;;;;;;;;10276485;28;20087;-64
2023/10/10 15:20:27;;;;;;;10.98;3.53;;;;;;;;;;10282647;28;20096;-63
2023/10/10 15:25:25;;;;;;;5.20;2.38;;;;;;;;;;10272689;28;20081;-64
2023/10/10 15:30:24;;;;;;;5.28;3.88;;;;;;;;;;10283181;28;20088;-64
2023/10/10 15:35:23;;;;;;;11.38;3.58;;;;;;;;;;10286081;28;20075;-63
2023/10/10 15:40:23;;;;;;;12.65;4.15;;;;;;;;;;10285072;28;20069;-63
2023/10/10 15:45:21;;;;;;;9.93;3.35;;;;;;;;;;10277797;28;20506;-64
2023/10/10 15:50:21;;;;;;;11.32;2.67;;;;;;;;;;10291228;28;20114;-64
2023/10/10 15:55:23;;;;;;;9.00;2.88;;;;;;;;;;10292119;28;20083;-65
2023/10/10 16:00:32;;;;;;;7.53;3.95;;;;;;;;;;10289782;28;20083;-65
2023/10/10 16:05:31;;;;;;;18.05;5.68;;;;;;;;;;10288894;28;20061;-64
2023/10/10 16:10:30;;;;;;;11.52;5.63;;;;;;;;;;10289535;28;20075;-64
2023/10/10 16:15:32;;;;;;;12.80;4.38;;;;;;;;;;10288455;28;20087;-64
2023/10/10 16:20:35;;;;;;;23.80;5.78;;;;;;;;;;10281084;28;21400;-65
2023/10/10 16:25:36;;;;;;;25.60;10.10;;;;;;;;;;10285997;28;20068;-64
2023/10/10 16:30:38;;;;;;;5.18;2.95;;;;;;;;;;10290894;28;20072;-63
2023/10/10 16:35:40;;;;;;;9.90;2.83;;;;;;;;;;10288981;28;20063;-65
2023/10/10 16:40:40;;;;;;;7.97;3.92;;;;;;;;;;10288970;28;20061;-64
2023/10/10 16:45:40;;;;;;;5.75;2.85;;;;;;;;;;10290691;28;20072;-64
2023/10/10 16:50:39;;;;;;;9.88;3.10;;;;;;;;;;10291479;28;20075;-65
2023/10/10 16:55:39;;;;;;;14.95;4.55;;;;;;;;;;10290408;28;20072;-64
2023/10/10 17:00:40;;;;;;;7.40;3.65;;;;;;;;;;10289887;28;20072;-64
2023/10/10 17:05:40;;;;;;;10.73;3.65;;;;;;;;;;10290729;28;20106;-65
2023/10/10 17:10:38;;;;;;;7.95;3.65;;;;;;;;;;10289299;28;20481;-66
2023/10/10 17:15:45;;;;;;;15.80;7.13;;;;;;;;;;10288862;28;20080;-64
2023/10/10 17:20:43;;;;;;;8.98;3.30;;;;;;;;;;10289140;28;20076;-64
2023/10/10 17:25:42;;;;;;;12.73;3.28;;;;;;;;;;10290286;28;20071;-65
2023/10/10 17:30:46;;;;;;;8.30;2.60;;;;;;;;;;10287991;28;20071;-66
2023/10/10 17:35:44;;;;;;;7.72;2.40;;;;;;;;;;10289061;28;20065;-65
2023/10/10 17:40:43;;;;;;;8.88;2.33;;;;;;;;;;10287656;28;20072;-63
2023/10/10 17:45:42;;;;;;;4.50;2.38;;;;;;;;;;10290030;28;20604;-63
2023/10/10 17:50:41;;;;;;;7.30;3.15;;;;;;;;;;10289806;28;20084;-63
2023/10/10 17:55:39;;;;;;;4.47;2.20;;;;;;;;;;10290131;28;20084;-63
2023/10/10 18:00:38;;;;;;;8.98;2.95;;;;;;;;;;10288715;28;20072;-63
2023/10/10 18:05:38;;;;;;;9.52;3.00;;;;;;;;;;10292711;28;20466;-62
2023/10/10 18:10:37;;;;;;;4.65;2.05;;;;;;;;;;10295388;28;20546;-64
2023/10/10 18:15:36;;;;;;;5.32;2.78;;;;;;;;;;10298367;28;20088;-63
2023/10/10 18:20:34;;;;;;;6.35;2.70;;;;;;;;;;10296882;28;20513;-64
2023/10/10 18:25:37;;;;;;;3.83;2.20;;;;;;;;;;10296178;28;20063;-63
2023/10/10 18:30:37;;;;;;;7.95;2.17;;;;;;;;;;10296659;28;20083;-64
2023/10/10 18:35:36;;;;;;;13.35;2.92;;;;;;;;;;10295365;28;20095;-64
2023/10/10 18:40:39;;;;;;;7.32;2.33;;;;;;;;;;10292596;28;20091;-64
2023/10/10 18:45:40;;;;;;;9.50;2.47;;;;;;;;;;10271100;28;20134;-64
2023/10/10 18:50:39;;;;;;;8.68;2.30;;;;;;;;;;10272325;28;20514;-64
2023/10/10 18:55:39;;;;;;;4.88;2.38;;;;;;;;;;10294344;28;20079;-63
2023/10/10 19:00:38;;;;;;;7.03;2.50;;;;;;;;;;10296648;28;20083;-64
2023/10/10 19:05:39;;;;;;;8.77;2.38;;;;;;;;;;10288617;28;20477;-64
2023/10/10 19:10:39;;;;;;;6.63;2.83;;;;;;;;;;10287357;28;20439;-64
2023/10/10 19:15:38;;;;;;;7.00;1.70;;;;;;;;;;10292346;28;20525;-64
2023/10/10 19:20:37;;;;;;;6.57;2.70;;;;;;;;;;10287398;28;20557;-64
2023/10/10 19:25:45;;;;;;;5.72;2.15;;;;;;;;;;10292411;28;20072;-65
2023/10/10 19:30:45;;;;;;;11.82;2.17;;;;;;;;;;10284615;28;20071;-64
2023/10/10 19:35:44;;;;;;;8.27;2.30;;;;;;;;;;10289176;28;20079;-64
2023/10/10 19:40:43;;;;;;;8.82;2.55;;;;;;;;;;10290118;28;20522;-65
2023/10/10 19:45:45;;;;;;;11.70;2.50;;;;;;;;;;10294400;28;20502;-65
2023/10/10 19:50:45;;;;;;;3.13;2.22;;;;;;;;;;10292921;28;20083;-63
2023/10/10 19:55:44;;;;;;;6.28;2.80;;;;;;;;;;10293975;28;20207;-63
2023/10/10 20:00:45;;;;;;;6.88;2.20;;;;;;;;;;10293920;28;20509;-64
2023/10/10 20:05:45;;;;;;;11.25;2.30;;;;;;;;;;10292139;28;20083;-64
2023/10/10 20:10:48;;;;;;;7.03;2.28;;;;;;;;;;10290253;28;20077;-64
2023/10/10 20:15:46;;;;;;;6.28;2.80;;;;;;;;;;10283179;28;20670;-64
2023/10/10 20:20:48;;;;;;;7.97;3.95;;;;;;;;;;10292495;28;20072;-63
2023/10/10 20:25:50;;;;;;;6.45;3.17;;;;;;;;;;10292482;28;20166;-64
2023/10/10 20:30:48;;;;;;;8.80;2.50;;;;;;;;;;10289164;28;20540;-65
2023/10/10 20:35:50;;;;;;;9.23;2.47;;;;;;;;;;10292272;28;20066;-64
2023/10/10 20:40:49;;;;;;;9.68;2.40;;;;;;;;;;10292465;28;20077;-64
2023/10/10 20:45:47;;;;;;;9.27;2.42;;;;;;;;;;10291039;28;20072;-62
2023/10/10 20:50:45;;;;;;;9.77;2.17;;;;;;;;;;10288342;28;20067;-64
2023/10/10 20:55:46;;;;;;;6.13;2.42;;;;;;;;;;10287763;28;20501;-65
2023/10/10 21:00:44;;;;;;;7.25;1.95;;;;;;;;;;10288621;28;20091;-65
2023/10/10 21:05:43;;;;;;;7.07;3.97;;;;;;;;;;10282111;28;20066;-64
2023/10/10 21:10:43;;;;;;;6.55;1.95;;;;;;;;;;10284033;28;20072;-64
2023/10/10 21:15:43;;;;;;;2.70;2.17;;;;;;;;;;10288051;28;20077;-64
2023/10/10 21:20:41;;;;;;;5.85;2.65;;;;;;;;;;10287855;28;20073;-63
2023/10/10 21:25:59;;;;;;;9.27;2.17;;;;;;;;;;10289460;28;20100;-64
2023/10/10 21:30:59;;;;;;;6.80;1.70;;;;;;;;;;10285753;28;20075;-63
2023/10/10 21:35:57;;;;;;;4.07;2.20;;;;;;;;;;10286130;28;20076;-65
2023/10/10 21:41:02;;;;;;;7.78;1.75;;;;;;;;;;10291578;28;20552;-63
2023/10/10 21:46:04;;;;;;;5.75;1.60;;;;;;;;;;10297440;28;20041;-64
2023/10/10 21:51:02;;;;;;;4.65;2.30;;;;;;;;;;10297727;28;20076;-63
2023/10/10 21:56:06;;;;;;;4.10;1.63;;;;;;;;;;10296849;28;20521;-63
2023/10/10 22:01:06;;;;;;;7.47;1.90;;;;;;;;;;10298088;28;20520;-65
2023/10/10 22:06:07;;;;;;;3.15;2.10;;;;;;;;;;10292528;28;20099;-64
2023/10/10 22:11:08;;;;;;;6.38;2.45;;;;;;;;;;10288050;28;20462;-63
2023/10/10 22:16:07;;;;;;;3.50;2.50;;;;;;;;;;10296080;28;20057;-63
2023/10/10 22:21:09;;;;;;;4.68;1.95;;;;;;;;;;10298689;28;20136;-64
2023/10/10 22:26:08;;;;;;;10.00;2.28;;;;;;;;;;10291126;28;20076;-64
2023/10/10 22:31:15;;;;;;;5.03;2.40;;;;;;;;;;10295726;28;20068;-64
2023/10/10 22:36:15;;;;;;;6.93;2.50;;;;;;;;;;10293442;28;20631;-64
2023/10/10 22:41:14;;;;;;;4.75;2.15;;;;;;;;;;10295726;28;20084;-64
2023/10/10 22:46:12;;;;;;;2.67;1.52;;;;;;;;;;10293882;28;20083;-64
2023/10/10 22:51:12;;;;;;;6.13;2.30;;;;;;;;;;10292133;28;20065;-64
2023/10/10 22:56:11;;;;;;;5.97;1.77;;;;;;;;;;10290509;28;21183;-64
2023/10/10 23:01:14;;;;;;;6.25;1.80;;;;;;;;;;10291630;28;20077;-64
2023/10/10 23:06:14;;;;;;;2.70;2.08;;;;;;;;;;10294157;28;20065;-63
2023/10/10 23:11:16;;;;;;;4.35;2.30;;;;;;;;;;10294871;28;20072;-63
2023/10/10 23:16:16;;;;;;;4.22;2.10;;;;;;;;;;10293587;28;20091;-64
2023/10/10 23:21:19;;;;;;;2.30;1.90;;;;;;;;;;10295278;28;20095;-64
2023/10/10 23:26:18;;;;;;;8.10;1.98;;;;;;;;;;10295589;28;20106;-64
2023/10/10 23:31:16;;;;;;;11.23;2.03;;;;;;;;;;10295473;28;21065;-64
2023/10/10 23:36:18;;;;;;;2.53;1.65;;;;;;;;;;10294766;28;20087;-64
2023/10/10 23:41:18;;;;;;;2.70;1.80;;;;;;;;;;10293584;28;20080;-65
2023/10/10 23:46:21;;;;;;;4.75;1.80;;;;;;;;;;10291816;28;20069;-62
2023/10/10 23:51:22;;;;;;;4.60;1.83;;;;;;;;;;10292023;28;20084;-64
2023/10/10 23:56:22;;;;;;;3.72;2.00;;;;;;;;;;10305414;28;20422;-64
